sensor_id;sensor_type;location;lat;lon;timestamp;pressure;altitude;pressure_sealevel;temperature;humidity
64835;BME280;51293;59.296;18.006;2022-09-21T00:00:42;101827.63;;;5.59;88.42
64835;BME280;51293;59.296;18.006;2022-09-21T00:03:08;101831.31;;;5.58;88.49
64835;BME280;51293;59.296;18.006;2022-09-21T00:05:34;101831.13;;;5.59;88.71
64835;BME280;51293;59.296;18.006;2022-09-21T00:08:04;101829.47;;;5.58;88.64
64835;BME280;51293;59.296;18.006;2022-09-21T00:10:30;101828.63;;;5.58;88.80
64835;BME280;51293;59.296;18.006;2022-09-21T00:12:57;101835.31;;;5.62;88.92
64835;BME280;51293;59.296;18.006;2022-09-21T00:15:23;101836.50;;;5.59;88.95
64835;BME280;51293;59.296;18.006;2022-09-21T00:17:52;101838.00;;;5.62;88.96
64835;BME280;51293;59.296;18.006;2022-09-21T00:20:18;101840.56;;;5.63;88.78
64835;BME280;51293;59.296;18.006;2022-09-21T00:22:44;101840.56;;;5.63;88.69
64835;BME280;51293;59.296;18.006;2022-09-21T00:25:09;101844.41;;;5.61;88.87
64835;BME280;51293;59.296;18.006;2022-09-21T00:27:35;101850.78;;;5.60;88.81
64835;BME280;51293;59.296;18.006;2022-09-21T00:30:01;101850.78;;;5.60;88.95
64835;BME280;51293;59.296;18.006;2022-09-21T00:32:32;101847.63;;;5.56;89.37
64835;BME280;51293;59.296;18.006;2022-09-21T00:34:57;101846.94;;;5.54;89.56
64835;BME280;51293;59.296;18.006;2022-09-21T00:37:23;101853.16;;;5.55;89.50
64835;BME280;51293;59.296;18.006;2022-09-21T00:39:49;101854.31;;;5.52;89.58
64835;BME280;51293;59.296;18.006;2022-09-21T00:42:28;101854.69;;;5.49;89.66
64835;BME280;51293;59.296;18.006;2022-09-21T00:44:54;101859.38;;;5.47;89.75
64835;BME280;51293;59.296;18.006;2022-09-21T00:49:58;101853.31;;;5.45;89.63
64835;BME280;51293;59.296;18.006;2022-09-21T00:52:26;101853.31;;;5.45;89.71
64835;BME280;51293;59.296;18.006;2022-09-21T00:55:12;101851.66;;;5.44;90.05
64835;BME280;51293;59.296;18.006;2022-09-21T00:57:38;101851.16;;;5.41;90.06
64835;BME280;51293;59.296;18.006;2022-09-21T01:00:06;101852.34;;;5.38;90.20
64835;BME280;51293;59.296;18.006;2022-09-21T01:02:33;101853.00;;;5.32;90.38
64835;BME280;51293;59.296;18.006;2022-09-21T01:04:59;101849.81;;;5.28;90.70
64835;BME280;51293;59.296;18.006;2022-09-21T01:07:27;101842.44;;;5.22;90.85
64835;BME280;51293;59.296;18.006;2022-09-21T01:09:55;101846.47;;;5.18;90.93
64835;BME280;51293;59.296;18.006;2022-09-21T01:12:40;101849.66;;;5.14;90.88
64835;BME280;51293;59.296;18.006;2022-09-21T01:24:11;101862.25;;;5.05;91.54
64835;BME280;51293;59.296;18.006;2022-09-21T01:35:00;101862.56;;;4.94;91.47
64835;BME280;51293;59.296;18.006;2022-09-21T01:37:41;101872.47;;;4.93;92.14
64835;BME280;51293;59.296;18.006;2022-09-21T01:40:17;101870.13;;;4.90;91.79
64835;BME280;51293;59.296;18.006;2022-09-21T01:42:44;101870.44;;;4.87;92.14
64835;BME280;51293;59.296;18.006;2022-09-21T01:45:14;101868.25;;;4.83;92.44
64835;BME280;51293;59.296;18.006;2022-09-21T01:47:42;101875.66;;;4.81;92.51
64835;BME280;51293;59.296;18.006;2022-09-21T01:50:10;101878.47;;;4.79;92.63
64835;BME280;51293;59.296;18.006;2022-09-21T01:52:42;101881.31;;;4.77;92.77
64835;BME280;51293;59.296;18.006;2022-09-21T01:55:42;101879.81;;;4.75;92.89
64835;BME280;51293;59.296;18.006;2022-09-21T01:58:26;101879.16;;;4.73;92.93
64835;BME280;51293;59.296;18.006;2022-09-21T02:00:55;101874.09;;;4.70;93.36
64835;BME280;51293;59.296;18.006;2022-09-21T02:03:26;101871.56;;;4.68;93.40
64835;BME280;51293;59.296;18.006;2022-09-21T02:05:54;101882.47;;;4.67;93.58
64835;BME280;51293;59.296;18.006;2022-09-21T02:08:21;101884.31;;;4.66;93.46
64835;BME280;51293;59.296;18.006;2022-09-21T02:10:49;101883.50;;;4.66;93.56
64835;BME280;51293;59.296;18.006;2022-09-21T02:13:17;101884.63;;;4.63;93.79
64835;BME280;51293;59.296;18.006;2022-09-21T02:21:36;101890.03;;;4.71;94.23
64835;BME280;51293;59.296;18.006;2022-09-21T02:24:12;101880.50;;;4.77;94.33
64835;BME280;51293;59.296;18.006;2022-09-21T02:26:53;101885.19;;;4.83;94.28
64835;BME280;51293;59.296;18.006;2022-09-21T02:34:55;101885.91;;;5.10;93.86
64835;BME280;51293;59.296;18.006;2022-09-21T02:37:46;101899.34;;;5.18;93.81
64835;BME280;51293;59.296;18.006;2022-09-21T02:42:53;101896.84;;;5.32;93.58
64835;BME280;51293;59.296;18.006;2022-09-21T02:45:24;101899.84;;;5.38;93.64
64835;BME280;51293;59.296;18.006;2022-09-21T02:50:28;101900.00;;;5.52;93.33
64835;BME280;51293;59.296;18.006;2022-09-21T02:52:58;101895.47;;;5.61;93.21
64835;BME280;51293;59.296;18.006;2022-09-21T02:55:26;101901.00;;;5.68;92.12
64835;BME280;51293;59.296;18.006;2022-09-21T02:57:54;101899.31;;;5.75;91.51
64835;BME280;51293;59.296;18.006;2022-09-21T03:00:20;101903.19;;;5.80;90.87
64835;BME280;51293;59.296;18.006;2022-09-21T03:02:45;101902.66;;;5.85;89.99
64835;BME280;51293;59.296;18.006;2022-09-21T03:05:12;101902.84;;;5.91;89.48
64835;BME280;51293;59.296;18.006;2022-09-21T03:07:38;101903.34;;;5.95;89.72
64835;BME280;51293;59.296;18.006;2022-09-21T03:10:04;101905.03;;;5.96;89.37
64835;BME280;51293;59.296;18.006;2022-09-21T03:12:30;101910.91;;;6.00;89.13
64835;BME280;51293;59.296;18.006;2022-09-21T03:14:57;101916.94;;;6.02;89.21
64835;BME280;51293;59.296;18.006;2022-09-21T03:17:22;101911.53;;;6.10;89.07
64835;BME280;51293;59.296;18.006;2022-09-21T03:19:47;101902.63;;;6.09;89.25
64835;BME280;51293;59.296;18.006;2022-09-21T03:22:13;101916.09;;;6.09;89.46
64835;BME280;51293;59.296;18.006;2022-09-21T03:24:38;101917.28;;;6.07;89.29
64835;BME280;51293;59.296;18.006;2022-09-21T03:27:10;101921.50;;;6.01;89.26
64835;BME280;51293;59.296;18.006;2022-09-21T03:29:35;101922.03;;;5.97;89.29
64835;BME280;51293;59.296;18.006;2022-09-21T03:32:01;101917.78;;;5.94;89.44
64835;BME280;51293;59.296;18.006;2022-09-21T03:34:26;101917.47;;;5.89;90.20
64835;BME280;51293;59.296;18.006;2022-09-21T03:36:51;101920.47;;;5.86;90.55
64835;BME280;51293;59.296;18.006;2022-09-21T03:39:17;101925.00;;;5.85;90.73
64835;BME280;51293;59.296;18.006;2022-09-21T03:41:42;101924.53;;;5.82;90.94
64835;BME280;51293;59.296;18.006;2022-09-21T03:44:08;101924.69;;;5.80;90.97
64835;BME280;51293;59.296;18.006;2022-09-21T03:46:34;101926.69;;;5.78;91.29
64835;BME280;51293;59.296;18.006;2022-09-21T03:49:00;101931.41;;;5.76;91.23
64835;BME280;51293;59.296;18.006;2022-09-21T03:51:28;101941.31;;;5.76;91.52
64835;BME280;51293;59.296;18.006;2022-09-21T03:53:56;101930.56;;;5.76;91.99
64835;BME280;51293;59.296;18.006;2022-09-21T03:56:21;101919.81;;;5.76;92.05
64835;BME280;51293;59.296;18.006;2022-09-21T03:58:46;101925.03;;;5.77;92.07
64835;BME280;51293;59.296;18.006;2022-09-21T04:01:12;101931.09;;;5.79;91.81
64835;BME280;51293;59.296;18.006;2022-09-21T04:03:37;101922.84;;;5.81;91.98
64835;BME280;51293;59.296;18.006;2022-09-21T04:06:08;101923.69;;;5.81;91.98
64835;BME280;51293;59.296;18.006;2022-09-21T04:08:34;101914.78;;;5.81;92.33
64835;BME280;51293;59.296;18.006;2022-09-21T04:10:59;101920.00;;;5.82;92.36
64835;BME280;51293;59.296;18.006;2022-09-21T04:13:24;101922.69;;;5.82;92.73
64835;BME280;51293;59.296;18.006;2022-09-21T04:15:50;101917.13;;;5.84;92.51
64835;BME280;51293;59.296;18.006;2022-09-21T04:18:15;101922.50;;;5.84;92.92
64835;BME280;51293;59.296;18.006;2022-09-21T04:20:40;101930.22;;;5.87;92.58
64835;BME280;51293;59.296;18.006;2022-09-21T04:23:06;101918.63;;;5.86;92.58
64835;BME280;51293;59.296;18.006;2022-09-21T04:25:32;101923.84;;;5.88;92.61
64835;BME280;51293;59.296;18.006;2022-09-21T04:27:58;101930.75;;;5.90;92.68
64835;BME280;51293;59.296;18.006;2022-09-21T04:30:23;101923.53;;;5.91;92.98
64835;BME280;51293;59.296;18.006;2022-09-21T04:32:48;101913.63;;;5.91;92.99
64835;BME280;51293;59.296;18.006;2022-09-21T04:35:14;101919.34;;;5.97;92.92
64835;BME280;51293;59.296;18.006;2022-09-21T04:37:39;101911.41;;;5.95;92.81
64835;BME280;51293;59.296;18.006;2022-09-21T04:40:05;101909.72;;;5.94;93.04
64835;BME280;51293;59.296;18.006;2022-09-21T04:42:31;101917.13;;;5.92;93.29
64835;BME280;51293;59.296;18.006;2022-09-21T04:44:57;101914.63;;;5.90;93.29
64835;BME280;51293;59.296;18.006;2022-09-21T04:47:22;101916.63;;;5.88;93.54
64835;BME280;51293;59.296;18.006;2022-09-21T04:49:49;101925.00;;;5.85;93.81
64835;BME280;51293;59.296;18.006;2022-09-21T04:52:16;101921.00;;;5.81;94.20
64835;BME280;51293;59.296;18.006;2022-09-21T04:54:41;101924.69;;;5.80;94.15
64835;BME280;51293;59.296;18.006;2022-09-21T04:57:07;101931.94;;;5.80;94.30
64835;BME280;51293;59.296;18.006;2022-09-21T04:59:32;101925.19;;;5.76;94.72
64835;BME280;51293;59.296;18.006;2022-09-21T05:01:57;101923.69;;;5.65;95.40
64835;BME280;51293;59.296;18.006;2022-09-21T05:04:23;101915.97;;;5.62;95.33
64835;BME280;51293;59.296;18.006;2022-09-21T05:06:48;101920.66;;;5.60;95.34
64835;BME280;51293;59.296;18.006;2022-09-21T05:09:13;101928.91;;;5.58;95.47
64835;BME280;51293;59.296;18.006;2022-09-21T05:11:57;101938.31;;;5.54;95.75
64835;BME280;51293;59.296;18.006;2022-09-21T05:14:22;101933.09;;;5.53;95.72
64835;BME280;51293;59.296;18.006;2022-09-21T05:16:48;101937.47;;;5.54;95.88
64835;BME280;51293;59.296;18.006;2022-09-21T05:19:14;101934.63;;;5.55;95.93
64835;BME280;51293;59.296;18.006;2022-09-21T05:21:40;101940.50;;;5.59;96.05
64835;BME280;51293;59.296;18.006;2022-09-21T05:24:05;101941.84;;;5.63;95.97
64835;BME280;51293;59.296;18.006;2022-09-21T05:26:30;101933.09;;;5.69;95.94
64835;BME280;51293;59.296;18.006;2022-09-21T05:28:56;101944.38;;;5.81;96.13
64835;BME280;51293;59.296;18.006;2022-09-21T05:31:39;101941.81;;;5.87;96.23
64835;BME280;51293;59.296;18.006;2022-09-21T05:34:17;101930.09;;;5.97;96.04
64835;BME280;51293;59.296;18.006;2022-09-21T05:36:52;101935.28;;;6.06;96.06
64835;BME280;51293;59.296;18.006;2022-09-21T05:39:22;101945.66;;;6.17;96.08
64835;BME280;51293;59.296;18.006;2022-09-21T05:41:47;101944.97;;;6.24;96.85
64835;BME280;51293;59.296;18.006;2022-09-21T05:44:13;101942.44;;;6.30;96.74
64835;BME280;51293;59.296;18.006;2022-09-21T05:46:42;101944.41;;;6.36;96.72
64835;BME280;51293;59.296;18.006;2022-09-21T05:51:58;101951.47;;;6.45;96.65
64835;BME280;51293;59.296;18.006;2022-09-21T05:54:49;101959.19;;;6.48;96.65
64835;BME280;51293;59.296;18.006;2022-09-21T05:57:29;101958.84;;;6.52;96.59
64835;BME280;51293;59.296;18.006;2022-09-21T06:00:18;101957.66;;;6.54;96.33
64835;BME280;51293;59.296;18.006;2022-09-21T06:03:19;101971.78;;;6.56;96.25
64835;BME280;51293;59.296;18.006;2022-09-21T06:05:48;101970.59;;;6.59;96.21
64835;BME280;51293;59.296;18.006;2022-09-21T06:08:13;101962.50;;;6.59;96.15
64835;BME280;51293;59.296;18.006;2022-09-21T06:10:39;101969.56;;;6.60;96.16
64835;BME280;51293;59.296;18.006;2022-09-21T06:13:05;101969.56;;;6.60;96.18
64835;BME280;51293;59.296;18.006;2022-09-21T06:15:30;101969.25;;;6.63;96.22
64835;BME280;51293;59.296;18.006;2022-09-21T06:17:57;101975.75;;;6.68;96.27
64835;BME280;51293;59.296;18.006;2022-09-21T06:20:23;101975.72;;;6.76;96.29
64835;BME280;51293;59.296;18.006;2022-09-21T06:22:49;101974.00;;;6.84;96.31
64835;BME280;51293;59.296;18.006;2022-09-21T06:25:14;101977.50;;;6.92;96.25
64835;BME280;51293;59.296;18.006;2022-09-21T06:27:40;101979.97;;;7.02;96.04
64835;BME280;51293;59.296;18.006;2022-09-21T06:30:06;101976.91;;;7.13;95.82
64835;BME280;51293;59.296;18.006;2022-09-21T06:32:31;101982.72;;;7.25;94.89
64835;BME280;51293;59.296;18.006;2022-09-21T06:34:56;101983.31;;;7.35;94.93
64835;BME280;51293;59.296;18.006;2022-09-21T06:37:22;101978.69;;;7.44;94.21
64835;BME280;51293;59.296;18.006;2022-09-21T06:39:47;101974.91;;;7.53;93.86
64835;BME280;51293;59.296;18.006;2022-09-21T06:42:12;101968.47;;;7.62;93.10
64835;BME280;51293;59.296;18.006;2022-09-21T06:44:38;101971.56;;;7.74;92.65
64835;BME280;51293;59.296;18.006;2022-09-21T06:47:03;101975.03;;;7.82;91.44
64835;BME280;51293;59.296;18.006;2022-09-21T06:49:29;101978.47;;;7.91;90.28
64835;BME280;51293;59.296;18.006;2022-09-21T06:51:55;101988.66;;;8.04;89.25
64835;BME280;51293;59.296;18.006;2022-09-21T06:54:20;101986.25;;;8.09;87.96
64835;BME280;51293;59.296;18.006;2022-09-21T06:56:46;101987.00;;;8.17;88.18
64835;BME280;51293;59.296;18.006;2022-09-21T06:59:11;101986.91;;;8.26;87.99
64835;BME280;51293;59.296;18.006;2022-09-21T07:01:37;101984.97;;;8.34;87.70
64835;BME280;51293;59.296;18.006;2022-09-21T07:04:02;101989.47;;;8.42;87.06
64835;BME280;51293;59.296;18.006;2022-09-21T07:06:28;101985.19;;;8.48;86.16
64835;BME280;51293;59.296;18.006;2022-09-21T07:08:54;101986.47;;;8.52;85.66
64835;BME280;51293;59.296;18.006;2022-09-21T07:11:19;101988.44;;;8.58;85.67
64835;BME280;51293;59.296;18.006;2022-09-21T07:13:46;101980.44;;;8.64;85.85
64835;BME280;51293;59.296;18.006;2022-09-21T07:16:11;101983.88;;;8.73;85.45
64835;BME280;51293;59.296;18.006;2022-09-21T07:18:39;101984.22;;;8.85;85.34
64835;BME280;51293;59.296;18.006;2022-09-21T07:21:06;101977.50;;;8.95;85.26
64835;BME280;51293;59.296;18.006;2022-09-21T07:23:32;101984.59;;;8.96;84.51
64835;BME280;51293;59.296;18.006;2022-09-21T07:26:03;101978.03;;;9.06;82.83
64835;BME280;51293;59.296;18.006;2022-09-21T07:28:29;101979.22;;;9.18;82.50
64835;BME280;51293;59.296;18.006;2022-09-21T07:30:56;101975.75;;;9.24;81.29
64835;BME280;51293;59.296;18.006;2022-09-21T07:33:22;101980.69;;;9.35;79.32
64835;BME280;51293;59.296;18.006;2022-09-21T07:35:52;101980.56;;;9.43;79.07
64835;BME280;51293;59.296;18.006;2022-09-21T07:38:18;101978.72;;;9.50;78.35
64835;BME280;51293;59.296;18.006;2022-09-21T07:40:43;101976.56;;;9.61;77.79
64835;BME280;51293;59.296;18.006;2022-09-21T07:43:08;101972.88;;;9.68;76.30
64835;BME280;51293;59.296;18.006;2022-09-21T07:45:34;101975.63;;;9.75;75.82
64835;BME280;51293;59.296;18.006;2022-09-21T07:48:03;101974.28;;;9.85;75.05
64835;BME280;51293;59.296;18.006;2022-09-21T07:50:29;101977.00;;;9.92;74.25
64835;BME280;51293;59.296;18.006;2022-09-21T07:52:54;101981.91;;;10.03;74.77
64835;BME280;51293;59.296;18.006;2022-09-21T07:55:19;101974.69;;;10.17;72.19
64835;BME280;51293;59.296;18.006;2022-09-21T07:57:48;101975.47;;;10.32;71.82
64835;BME280;51293;59.296;18.006;2022-09-21T08:00:32;101977.84;;;10.49;71.12
64835;BME280;51293;59.296;18.006;2022-09-21T08:02:59;101977.53;;;10.65;70.91
64835;BME280;51293;59.296;18.006;2022-09-21T08:05:25;101976.38;;;10.87;70.58
64835;BME280;51293;59.296;18.006;2022-09-21T08:07:54;101981.47;;;11.04;69.72
64835;BME280;51293;59.296;18.006;2022-09-21T08:10:19;101979.03;;;11.29;68.14
64835;BME280;51293;59.296;18.006;2022-09-21T08:12:45;101983.03;;;11.52;67.47
64835;BME280;51293;59.296;18.006;2022-09-21T08:15:11;101977.88;;;11.84;65.61
64835;BME280;51293;59.296;18.006;2022-09-21T08:17:39;101980.59;;;12.17;66.33
64835;BME280;51293;59.296;18.006;2022-09-21T08:20:04;101979.03;;;12.54;65.61
64835;BME280;51293;59.296;18.006;2022-09-21T08:22:30;101972.06;;;12.78;64.51
64835;BME280;51293;59.296;18.006;2022-09-21T08:24:55;101973.50;;;12.87;63.88
64835;BME280;51293;59.296;18.006;2022-09-21T08:27:21;101975.28;;;13.07;63.99
64835;BME280;51293;59.296;18.006;2022-09-21T08:29:47;101978.72;;;13.34;62.60
64835;BME280;51293;59.296;18.006;2022-09-21T08:32:12;101976.63;;;13.36;61.90
64835;BME280;51293;59.296;18.006;2022-09-21T08:34:38;101976.22;;;13.64;60.14
64835;BME280;51293;59.296;18.006;2022-09-21T08:37:03;101973.63;;;14.00;57.89
64835;BME280;51293;59.296;18.006;2022-09-21T08:39:29;101976.44;;;14.55;57.58
64835;BME280;51293;59.296;18.006;2022-09-21T08:42:03;101979.63;;;15.07;55.70
64835;BME280;51293;59.296;18.006;2022-09-21T08:44:52;101979.31;;;15.57;53.72
64835;BME280;51293;59.296;18.006;2022-09-21T08:47:40;101977.59;;;15.86;52.67
64835;BME280;51293;59.296;18.006;2022-09-21T08:50:43;101976.94;;;16.26;52.03
64835;BME280;51293;59.296;18.006;2022-09-21T08:53:18;101969.53;;;16.38;51.11
64835;BME280;51293;59.296;18.006;2022-09-21T08:55:45;101975.78;;;16.85;49.55
64835;BME280;51293;59.296;18.006;2022-09-21T08:58:20;101967.06;;;17.00;50.13
64835;BME280;51293;59.296;18.006;2022-09-21T09:06:23;101980.19;;;16.63;49.12
64835;BME280;51293;59.296;18.006;2022-09-21T09:19:32;101980.25;;;16.40;49.48
64835;BME280;51293;59.296;18.006;2022-09-21T09:22:01;101981.78;;;15.89;50.33
64835;BME280;51293;59.296;18.006;2022-09-21T09:24:39;101984.38;;;15.42;50.69
64835;BME280;51293;59.296;18.006;2022-09-21T09:27:26;101989.47;;;15.08;52.96
64835;BME280;51293;59.296;18.006;2022-09-21T09:29:59;101985.19;;;15.31;51.91
64835;BME280;51293;59.296;18.006;2022-09-21T09:35:30;101983.81;;;15.22;51.18
64835;BME280;51293;59.296;18.006;2022-09-21T09:46:16;101994.56;;;14.50;53.71
64835;BME280;51293;59.296;18.006;2022-09-21T09:51:49;101992.69;;;14.00;54.82
64835;BME280;51293;59.296;18.006;2022-09-21T09:54:17;102003.72;;;13.81;55.66
64835;BME280;51293;59.296;18.006;2022-09-21T09:56:43;101990.63;;;13.71;55.60
64835;BME280;51293;59.296;18.006;2022-09-21T09:59:38;101992.34;;;13.65;54.74
64835;BME280;51293;59.296;18.006;2022-09-21T10:02:19;101988.44;;;13.80;56.08
64835;BME280;51293;59.296;18.006;2022-09-21T10:04:58;101989.00;;;13.88;55.79
64835;BME280;51293;59.296;18.006;2022-09-21T10:07:45;101992.97;;;13.92;53.55
64835;BME280;51293;59.296;18.006;2022-09-21T10:10:30;101981.81;;;14.00;54.31
64835;BME280;51293;59.296;18.006;2022-09-21T10:13:09;101989.16;;;14.00;53.90
64835;BME280;51293;59.296;18.006;2022-09-21T10:18:53;101989.91;;;13.82;55.29
64835;BME280;51293;59.296;18.006;2022-09-21T10:21:26;101993.56;;;13.69;54.96
64835;BME280;51293;59.296;18.006;2022-09-21T10:23:59;101991.34;;;13.60;56.08
64835;BME280;51293;59.296;18.006;2022-09-21T10:26:46;101992.47;;;13.45;56.63
64835;BME280;51293;59.296;18.006;2022-09-21T10:31:55;102001.50;;;13.39;56.72
64835;BME280;51293;59.296;18.006;2022-09-21T10:34:25;101998.25;;;13.56;56.27
64835;BME280;51293;59.296;18.006;2022-09-21T10:36:54;101990.84;;;13.69;55.72
64835;BME280;51293;59.296;18.006;2022-09-21T10:39:31;101987.59;;;13.54;54.26
64835;BME280;51293;59.296;18.006;2022-09-21T10:44:35;101995.31;;;13.19;54.50
64835;BME280;51293;59.296;18.006;2022-09-21T10:47:15;101984.00;;;13.22;54.71
64835;BME280;51293;59.296;18.006;2022-09-21T10:49:54;101988.63;;;13.21;55.20
64835;BME280;51293;59.296;18.006;2022-09-21T10:52:30;101991.41;;;13.46;57.65
64835;BME280;51293;59.296;18.006;2022-09-21T10:54:57;101988.72;;;13.71;56.20
64835;BME280;51293;59.296;18.006;2022-09-21T10:57:24;101986.41;;;14.00;54.43
64835;BME280;51293;59.296;18.006;2022-09-21T10:59:50;101986.16;;;14.26;52.10
64835;BME280;51293;59.296;18.006;2022-09-21T11:02:42;101992.22;;;14.28;50.30
64835;BME280;51293;59.296;18.006;2022-09-21T11:05:12;101983.91;;;14.23;52.35
64835;BME280;51293;59.296;18.006;2022-09-21T11:10:48;101989.28;;;14.05;53.67
64835;BME280;51293;59.296;18.006;2022-09-21T11:13:35;101988.06;;;14.26;53.08
64835;BME280;51293;59.296;18.006;2022-09-21T11:16:46;101989.59;;;14.40;52.00
64835;BME280;51293;59.296;18.006;2022-09-21T11:27:38;101982.06;;;14.79;50.76
64835;BME280;51293;59.296;18.006;2022-09-21T11:30:16;101983.94;;;14.97;47.96
64835;BME280;51293;59.296;18.006;2022-09-21T11:44:45;101964.66;;;15.93;45.86
64835;BME280;51293;59.296;18.006;2022-09-21T11:50:04;101972.06;;;16.40;43.56
64835;BME280;51293;59.296;18.006;2022-09-21T11:57:41;101970.88;;;16.99;43.51
64835;BME280;51293;59.296;18.006;2022-09-21T12:00:16;101967.72;;;17.36;41.39
64835;BME280;51293;59.296;18.006;2022-09-21T12:06:15;101973.31;;;17.41;40.15
64835;BME280;51293;59.296;18.006;2022-09-21T12:11:42;101971.84;;;17.67;40.56
64835;BME280;51293;59.296;18.006;2022-09-21T12:15:16;101977.44;;;18.22;39.93
64835;BME280;51293;59.296;18.006;2022-09-21T12:20:39;101967.84;;;18.80;37.89
64835;BME280;51293;59.296;18.006;2022-09-21T12:23:13;101975.72;;;19.21;37.81
64835;BME280;51293;59.296;18.006;2022-09-21T12:25:45;101973.38;;;19.34;36.23
64835;BME280;51293;59.296;18.006;2022-09-21T12:28:24;101972.44;;;19.51;34.94
64835;BME280;51293;59.296;18.006;2022-09-21T12:30:59;101973.84;;;19.80;37.67
64835;BME280;51293;59.296;18.006;2022-09-21T12:33:35;101969.34;;;19.69;35.83
64835;BME280;51293;59.296;18.006;2022-09-21T12:36:38;101969.41;;;19.47;36.91
64835;BME280;51293;59.296;18.006;2022-09-21T12:39:12;101968.56;;;19.74;34.34
64835;BME280;51293;59.296;18.006;2022-09-21T12:42:27;101973.16;;;20.00;35.01
64835;BME280;51293;59.296;18.006;2022-09-21T12:45:34;101962.78;;;20.50;32.47
64835;BME280;51293;59.296;18.006;2022-09-21T12:52:54;101961.28;;;20.32;33.42
64835;BME280;51293;59.296;18.006;2022-09-21T12:55:41;101967.16;;;20.03;34.55
64835;BME280;51293;59.296;18.006;2022-09-21T12:58:33;101952.38;;;20.14;36.05
64835;BME280;51293;59.296;18.006;2022-09-21T13:04:03;101954.41;;;20.34;34.56
64835;BME280;51293;59.296;18.006;2022-09-21T13:09:03;101959.81;;;20.14;34.39
64835;BME280;51293;59.296;18.006;2022-09-21T13:11:32;101951.44;;;20.41;32.30
64835;BME280;51293;59.296;18.006;2022-09-21T13:14:01;101960.31;;;20.48;35.30
64835;BME280;51293;59.296;18.006;2022-09-21T13:16:28;101961.84;;;20.34;32.70
64835;BME280;51293;59.296;18.006;2022-09-21T13:19:00;101959.00;;;20.61;32.53
64835;BME280;51293;59.296;18.006;2022-09-21T13:21:27;101956.75;;;20.53;32.01
64835;BME280;51293;59.296;18.006;2022-09-21T13:26:34;101953.97;;;20.47;31.23
64835;BME280;51293;59.296;18.006;2022-09-21T13:34:43;101957.59;;;20.58;32.43
64835;BME280;51293;59.296;18.006;2022-09-21T13:47:39;101952.47;;;20.30;32.91
64835;BME280;51293;59.296;18.006;2022-09-21T13:50:22;101950.09;;;20.43;33.27
64835;BME280;51293;59.296;18.006;2022-09-21T13:52:51;101946.09;;;20.76;31.90
64835;BME280;51293;59.296;18.006;2022-09-21T13:55:34;101942.09;;;21.10;33.29
64835;BME280;51293;59.296;18.006;2022-09-21T13:58:04;101950.84;;;20.91;33.32
64835;BME280;51293;59.296;18.006;2022-09-21T14:00:41;101950.47;;;21.55;32.01
64835;BME280;51293;59.296;18.006;2022-09-21T14:03:21;101946.38;;;20.75;31.96
64835;BME280;51293;59.296;18.006;2022-09-21T14:05:50;101944.44;;;20.70;32.56
64835;BME280;51293;59.296;18.006;2022-09-21T14:08:24;101943.94;;;20.79;32.02
64835;BME280;51293;59.296;18.006;2022-09-21T14:13:33;101951.00;;;20.59;31.72
64835;BME280;51293;59.296;18.006;2022-09-21T14:18:54;101949.09;;;20.17;31.93
64835;BME280;51293;59.296;18.006;2022-09-21T14:21:20;101952.94;;;19.79;33.46
64835;BME280;51293;59.296;18.006;2022-09-21T14:29:20;101947.69;;;18.31;34.38
64835;BME280;51293;59.296;18.006;2022-09-21T14:31:48;101943.97;;;17.87;36.29
64835;BME280;51293;59.296;18.006;2022-09-21T14:34:23;101947.84;;;17.57;37.05
64835;BME280;51293;59.296;18.006;2022-09-21T14:36:53;101949.75;;;17.40;37.87
64835;BME280;51293;59.296;18.006;2022-09-21T14:39:35;101943.34;;;17.34;39.77
64835;BME280;51293;59.296;18.006;2022-09-21T14:42:17;101942.94;;;16.85;39.57
64835;BME280;51293;59.296;18.006;2022-09-21T14:44:45;101942.75;;;16.75;40.12
64835;BME280;51293;59.296;18.006;2022-09-21T14:47:37;101941.97;;;16.40;41.13
64835;BME280;51293;59.296;18.006;2022-09-21T14:50:23;101944.09;;;16.38;41.65
64835;BME280;51293;59.296;18.006;2022-09-21T15:01:37;101950.94;;;15.58;43.52
64835;BME280;51293;59.296;18.006;2022-09-21T15:04:24;101943.69;;;15.52;42.27
64835;BME280;51293;59.296;18.006;2022-09-21T15:13:07;101947.63;;;14.96;43.08
64835;BME280;51293;59.296;18.006;2022-09-21T15:18:23;101944.94;;;14.78;43.79
64835;BME280;51293;59.296;18.006;2022-09-21T15:21:01;101949.72;;;14.64;42.78
64835;BME280;51293;59.296;18.006;2022-09-21T15:23:36;101941.75;;;14.63;43.46
64835;BME280;51293;59.296;18.006;2022-09-21T15:26:17;101949.06;;;14.50;44.63
64835;BME280;51293;59.296;18.006;2022-09-21T15:28:47;101944.16;;;14.34;44.45
64835;BME280;51293;59.296;18.006;2022-09-21T15:31:15;101946.72;;;14.29;44.27
64835;BME280;51293;59.296;18.006;2022-09-21T15:33:42;101942.63;;;14.20;46.29
64835;BME280;51293;59.296;18.006;2022-09-21T15:36:11;101944.06;;;14.22;46.22
64835;BME280;51293;59.296;18.006;2022-09-21T15:38:37;101945.47;;;14.06;46.59
64835;BME280;51293;59.296;18.006;2022-09-21T15:41:04;101948.28;;;14.00;46.71
64835;BME280;51293;59.296;18.006;2022-09-21T15:43:31;101953.97;;;13.98;47.16
64835;BME280;51293;59.296;18.006;2022-09-21T15:46:01;101940.63;;;13.90;48.58
64835;BME280;51293;59.296;18.006;2022-09-21T15:48:33;101948.06;;;13.76;53.59
64835;BME280;51293;59.296;18.006;2022-09-21T15:51:13;101956.16;;;13.58;57.03
64835;BME280;51293;59.296;18.006;2022-09-21T15:53:44;101952.88;;;13.49;57.72
64835;BME280;51293;59.296;18.006;2022-09-21T15:56:20;101958.03;;;13.33;58.02
64835;BME280;51293;59.296;18.006;2022-09-21T15:58:47;101964.78;;;13.17;58.35
64835;BME280;51293;59.296;18.006;2022-09-21T16:01:20;101960.06;;;12.99;59.06